McNett, Pennsylvania
Current Conditions -  °F | °C
As of 8:54 AM on Monday 24 Nov 2014 (Local Time) from KIPT Reporting Station
Scattered Clouds Scattered Clouds  
Wind Chill: 62°   Ceiling: Unl
Heat Index: 62°   Visibility: 10mi
Dew Point: 55°   Wind: 21mph
Humidity: 78%   Direction: 150°SSE
Pressure: 29.54"   Gusts: 30mph
Location:  41.5548°N, 76.8911°W
Report Text: KIPT 241354Z 15018G26KT 10SM SCT080 17/13 A2954 RMK AO2 PK WND 15027/1341 SLP002 T01670128
Loading
Personal Weather Stations






























Interactive Weather Map New forecast layout! Learn more

10-Day Weather Forecast

Advertisements
Track Severe Weather on mobile